sensor_id;sensor_type;location;lat;lon;timestamp;pressure;altitude;pressure_sealevel;temperature;humidity
11184;BME280;5648;43.628;22.684;2022-08-01T00:01:04;95108.66;;;18.09;100.00
11184;BME280;5648;43.628;22.684;2022-08-01T00:03:29;95110.78;;;18.07;100.00
11184;BME280;5648;43.628;22.684;2022-08-01T00:05:55;95108.47;;;18.16;97.36
11184;BME280;5648;43.628;22.684;2022-08-01T00:08:20;95111.38;;;18.15;94.76
11184;BME280;5648;43.628;22.684;2022-08-01T00:10:45;95108.22;;;18.23;94.07
11184;BME280;5648;43.628;22.684;2022-08-01T00:13:11;95113.03;;;18.21;100.00
11184;BME280;5648;43.628;22.684;2022-08-01T00:15:36;95110.88;;;18.18;94.36
11184;BME280;5648;43.628;22.684;2022-08-01T00:18:02;95107.16;;;18.24;93.01
11184;BME280;5648;43.628;22.684;2022-08-01T00:20:28;95093.78;;;18.24;96.72
11184;BME280;5648;43.628;22.684;2022-08-01T00:22:53;95095.69;;;18.28;92.27
11184;BME280;5648;43.628;22.684;2022-08-01T00:25:19;95098.13;;;18.30;89.92
11184;BME280;5648;43.628;22.684;2022-08-01T00:27:44;95111.47;;;18.25;92.77
11184;BME280;5648;43.628;22.684;2022-08-01T00:30:10;95095.50;;;18.35;93.39
11184;BME280;5648;43.628;22.684;2022-08-01T00:32:35;95090.06;;;18.25;91.56
11184;BME280;5648;43.628;22.684;2022-08-01T00:35:01;95098.84;;;18.20;86.65
11184;BME280;5648;43.628;22.684;2022-08-01T00:37:26;95089.00;;;18.26;89.63
11184;BME280;5648;43.628;22.684;2022-08-01T00:39:52;95094.31;;;18.21;90.51
11184;BME280;5648;43.628;22.684;2022-08-01T00:42:17;95101.25;;;18.17;97.79
11184;BME280;5648;43.628;22.684;2022-08-01T00:44:43;95101.16;;;18.06;97.53
11184;BME280;5648;43.628;22.684;2022-08-01T00:47:08;95100.38;;;17.84;97.42
11184;BME280;5648;43.628;22.684;2022-08-01T00:49:34;95102.00;;;17.85;99.12
11184;BME280;5648;43.628;22.684;2022-08-01T00:52:00;95103.56;;;17.81;100.00
11184;BME280;5648;43.628;22.684;2022-08-01T00:54:26;95093.81;;;17.70;100.00
11184;BME280;5648;43.628;22.684;2022-08-01T00:56:53;95084.84;;;17.81;100.00
11184;BME280;5648;43.628;22.684;2022-08-01T00:59:21;95083.13;;;17.70;100.00
11184;BME280;5648;43.628;22.684;2022-08-01T01:01:47;95081.34;;;17.75;100.00
11184;BME280;5648;43.628;22.684;2022-08-01T01:04:12;95091.81;;;17.82;100.00
11184;BME280;5648;43.628;22.684;2022-08-01T01:17:35;95090.16;;;17.54;100.00
11184;BME280;5648;43.628;22.684;2022-08-01T01:20:03;95101.53;;;17.44;100.00
11184;BME280;5648;43.628;22.684;2022-08-01T01:22:42;95088.25;;;17.49;100.00
11184;BME280;5648;43.628;22.684;2022-08-01T01:25:40;95079.03;;;17.62;100.00
11184;BME280;5648;43.628;22.684;2022-08-01T01:30:50;95081.34;;;17.75;100.00
11184;BME280;5648;43.628;22.684;2022-08-01T01:33:19;95072.91;;;17.67;100.00
11184;BME280;5648;43.628;22.684;2022-08-01T01:35:49;95082.13;;;17.76;100.00
11184;BME280;5648;43.628;22.684;2022-08-01T01:38:21;95081.16;;;17.87;99.28
11184;BME280;5648;43.628;22.684;2022-08-01T01:40:49;95074.66;;;17.78;100.00
11184;BME280;5648;43.628;22.684;2022-08-01T01:43:16;95069.84;;;17.75;100.00
11184;BME280;5648;43.628;22.684;2022-08-01T01:45:44;95077.84;;;17.75;100.00
11184;BME280;5648;43.628;22.684;2022-08-01T01:48:10;95068.16;;;17.69;100.00
11184;BME280;5648;43.628;22.684;2022-08-01T01:50:38;95064.69;;;17.68;100.00
11184;BME280;5648;43.628;22.684;2022-08-01T01:53:05;95055.78;;;17.63;96.41
11184;BME280;5648;43.628;22.684;2022-08-01T01:55:32;95050.72;;;17.66;100.00
11184;BME280;5648;43.628;22.684;2022-08-01T01:57:58;95046.69;;;17.64;100.00
11184;BME280;5648;43.628;22.684;2022-08-01T02:00:26;95054.72;;;17.64;100.00
11184;BME280;5648;43.628;22.684;2022-08-01T02:02:55;95057.53;;;17.52;100.00
11184;BME280;5648;43.628;22.684;2022-08-01T02:05:22;95054.84;;;17.52;100.00
11184;BME280;5648;43.628;22.684;2022-08-01T02:07:50;95063.94;;;17.51;100.00
11184;BME280;5648;43.628;22.684;2022-08-01T02:10:18;95061.84;;;17.58;100.00
11184;BME280;5648;43.628;22.684;2022-08-01T02:12:45;95066.31;;;17.47;100.00
11184;BME280;5648;43.628;22.684;2022-08-01T02:15:13;95058.09;;;17.54;100.00
11184;BME280;5648;43.628;22.684;2022-08-01T02:17:43;95061.28;;;17.29;100.00
11184;BME280;5648;43.628;22.684;2022-08-01T02:20:10;95062.22;;;17.40;100.00
11184;BME280;5648;43.628;22.684;2022-08-01T02:22:58;95063.53;;;17.37;100.00
11184;BME280;5648;43.628;22.684;2022-08-01T02:25:31;95059.91;;;17.27;100.00
11184;BME280;5648;43.628;22.684;2022-08-01T02:28:03;95055.94;;;17.29;100.00
11184;BME280;5648;43.628;22.684;2022-08-01T02:30:34;95052.19;;;17.30;100.00
11184;BME280;5648;43.628;22.684;2022-08-01T02:35:40;95054.53;;;17.21;100.00
11184;BME280;5648;43.628;22.684;2022-08-01T02:38:09;95047.19;;;17.12;100.00
11184;BME280;5648;43.628;22.684;2022-08-01T02:40:38;95034.91;;;17.11;100.00
11184;BME280;5648;43.628;22.684;2022-08-01T02:43:05;95041.84;;;17.12;100.00
11184;BME280;5648;43.628;22.684;2022-08-01T02:45:34;95033.84;;;17.12;100.00
11184;BME280;5648;43.628;22.684;2022-08-01T02:48:11;95027.13;;;17.09;100.00
11184;BME280;5648;43.628;22.684;2022-08-01T02:50:39;95024.16;;;17.06;100.00
11184;BME280;5648;43.628;22.684;2022-08-01T02:53:08;95023.91;;;17.07;100.00
11184;BME280;5648;43.628;22.684;2022-08-01T02:55:38;95017.47;;;17.03;100.00
11184;BME280;5648;43.628;22.684;2022-08-01T02:58:04;95016.16;;;17.06;100.00
11184;BME280;5648;43.628;22.684;2022-08-01T03:00:32;95009.38;;;16.98;100.00
11184;BME280;5648;43.628;22.684;2022-08-01T03:02:59;95014.97;;;16.97;100.00
11184;BME280;5648;43.628;22.684;2022-08-01T03:05:26;95029.94;;;16.98;100.00
11184;BME280;5648;43.628;22.684;2022-08-01T03:07:53;95016.03;;;16.96;100.00
11184;BME280;5648;43.628;22.684;2022-08-01T03:10:20;95018.31;;;17.09;100.00
11184;BME280;5648;43.628;22.684;2022-08-01T03:12:48;95014.84;;;17.08;100.00
11184;BME280;5648;43.628;22.684;2022-08-01T03:15:15;95030.22;;;17.01;100.00
11184;BME280;5648;43.628;22.684;2022-08-01T03:17:44;95029.97;;;17.03;100.00
11184;BME280;5648;43.628;22.684;2022-08-01T03:20:14;95031.16;;;17.12;100.00
11184;BME280;5648;43.628;22.684;2022-08-01T03:22:42;95026.13;;;17.15;100.00
11184;BME280;5648;43.628;22.684;2022-08-01T03:25:10;95028.63;;;17.22;100.00
11184;BME280;5648;43.628;22.684;2022-08-01T03:27:37;95025.00;;;17.33;100.00
11184;BME280;5648;43.628;22.684;2022-08-01T03:30:04;95039.19;;;17.34;100.00
11184;BME280;5648;43.628;22.684;2022-08-01T03:32:31;95033.84;;;17.34;100.00
11184;BME280;5648;43.628;22.684;2022-08-01T03:34:56;95034.25;;;17.26;100.00
11184;BME280;5648;43.628;22.684;2022-08-01T03:37:40;95036.69;;;17.27;100.00
11184;BME280;5648;43.628;22.684;2022-08-01T03:42:56;95033.63;;;17.40;100.00
11184;BME280;5648;43.628;22.684;2022-08-01T03:45:30;95033.72;;;17.50;100.00
11184;BME280;5648;43.628;22.684;2022-08-01T03:48:01;95036.38;;;17.45;100.00
11184;BME280;5648;43.628;22.684;2022-08-01T03:50:29;95027.84;;;17.48;100.00
11184;BME280;5648;43.628;22.684;2022-08-01T03:52:59;95033.22;;;17.54;100.00
11184;BME280;5648;43.628;22.684;2022-08-01T03:55:27;95032.59;;;17.68;100.00
11184;BME280;5648;43.628;22.684;2022-08-01T03:57:54;95035.38;;;17.57;100.00
11184;BME280;5648;43.628;22.684;2022-08-01T04:00:20;95032.63;;;17.46;100.00
11184;BME280;5648;43.628;22.684;2022-08-01T04:02:48;95025.75;;;17.56;100.00
11184;BME280;5648;43.628;22.684;2022-08-01T04:05:15;95022.91;;;17.62;100.00
11184;BME280;5648;43.628;22.684;2022-08-01T04:07:45;95024.25;;;17.65;100.00
11184;BME280;5648;43.628;22.684;2022-08-01T04:10:11;95027.31;;;17.51;100.00
11184;BME280;5648;43.628;22.684;2022-08-01T04:12:37;95019.84;;;17.54;100.00
11184;BME280;5648;43.628;22.684;2022-08-01T04:15:04;95010.81;;;17.87;100.00
11184;BME280;5648;43.628;22.684;2022-08-01T04:17:30;95023.47;;;17.96;100.00
11184;BME280;5648;43.628;22.684;2022-08-01T04:19:55;95029.97;;;18.05;100.00
11184;BME280;5648;43.628;22.684;2022-08-01T04:22:21;95025.91;;;17.98;100.00
11184;BME280;5648;43.628;22.684;2022-08-01T04:24:48;95027.31;;;18.05;100.00
11184;BME280;5648;43.628;22.684;2022-08-01T04:27:21;95037.56;;;18.19;98.69
11184;BME280;5648;43.628;22.684;2022-08-01T04:29:47;95031.84;;;18.42;94.39
11184;BME280;5648;43.628;22.684;2022-08-01T04:32:16;95030.66;;;18.28;98.09
11184;BME280;5648;43.628;22.684;2022-08-01T04:34:44;95033.44;;;18.43;100.00
11184;BME280;5648;43.628;22.684;2022-08-01T04:37:12;95051.59;;;18.36;100.00
11184;BME280;5648;43.628;22.684;2022-08-01T04:39:42;95052.16;;;18.38;97.68
11184;BME280;5648;43.628;22.684;2022-08-01T04:42:08;95049.50;;;18.80;87.41
11184;BME280;5648;43.628;22.684;2022-08-01T04:44:36;95047.16;;;18.89;85.77
11184;BME280;5648;43.628;22.684;2022-08-01T04:47:03;95051.44;;;18.95;87.48
11184;BME280;5648;43.628;22.684;2022-08-01T04:49:36;95049.63;;;19.01;85.13
11184;BME280;5648;43.628;22.684;2022-08-01T04:52:02;95045.13;;;19.16;83.88
11184;BME280;5648;43.628;22.684;2022-08-01T04:54:30;95049.16;;;19.24;83.36
11184;BME280;5648;43.628;22.684;2022-08-01T04:56:59;95045.94;;;19.27;83.88
11184;BME280;5648;43.628;22.684;2022-08-01T04:59:28;95045.41;;;19.25;83.94
11184;BME280;5648;43.628;22.684;2022-08-01T05:04:33;95055.84;;;19.26;83.41
11184;BME280;5648;43.628;22.684;2022-08-01T05:06:58;95054.88;;;19.43;78.68
11184;BME280;5648;43.628;22.684;2022-08-01T05:09:25;95055.13;;;19.46;77.60
11184;BME280;5648;43.628;22.684;2022-08-01T05:11:50;95047.16;;;19.56;76.91
11184;BME280;5648;43.628;22.684;2022-08-01T05:14:16;95047.16;;;19.67;76.82
11184;BME280;5648;43.628;22.684;2022-08-01T05:16:41;95042.91;;;19.71;76.16
11184;BME280;5648;43.628;22.684;2022-08-01T05:19:07;95045.56;;;19.76;75.13
11184;BME280;5648;43.628;22.684;2022-08-01T05:21:33;95032.97;;;19.76;74.78
11184;BME280;5648;43.628;22.684;2022-08-01T05:23:59;95039.94;;;19.82;76.21
11184;BME280;5648;43.628;22.684;2022-08-01T05:26:24;95047.19;;;19.87;73.31
11184;BME280;5648;43.628;22.684;2022-08-01T05:28:50;95043.16;;;19.95;74.79
11184;BME280;5648;43.628;22.684;2022-08-01T05:31:15;95050.69;;;19.98;72.88
11184;BME280;5648;43.628;22.684;2022-08-01T05:33:41;95054.72;;;20.05;71.24
11184;BME280;5648;43.628;22.684;2022-08-01T05:36:06;95060.09;;;20.05;71.89
11184;BME280;5648;43.628;22.684;2022-08-01T05:38:32;95057.16;;;20.17;70.39
11184;BME280;5648;43.628;22.684;2022-08-01T05:40:58;95059.81;;;20.12;70.91
11184;BME280;5648;43.628;22.684;2022-08-01T05:43:23;95064.66;;;20.20;72.10
11184;BME280;5648;43.628;22.684;2022-08-01T05:45:48;95070.00;;;20.25;72.60
11184;BME280;5648;43.628;22.684;2022-08-01T05:48:14;95077.25;;;20.25;70.55
11184;BME280;5648;43.628;22.684;2022-08-01T05:50:40;95068.16;;;20.31;70.94
11184;BME280;5648;43.628;22.684;2022-08-01T05:53:05;95050.69;;;20.23;71.85
11184;BME280;5648;43.628;22.684;2022-08-01T05:55:30;95061.44;;;20.23;71.20
11184;BME280;5648;43.628;22.684;2022-08-01T05:57:56;95061.97;;;20.30;72.43
11184;BME280;5648;43.628;22.684;2022-08-01T06:00:21;95067.88;;;20.32;73.24
11184;BME280;5648;43.628;22.684;2022-08-01T06:02:47;95074.84;;;20.38;73.39
11184;BME280;5648;43.628;22.684;2022-08-01T06:05:12;95072.97;;;20.54;73.79
11184;BME280;5648;43.628;22.684;2022-08-01T06:07:38;95074.06;;;20.48;72.18
11184;BME280;5648;43.628;22.684;2022-08-01T06:10:05;95081.84;;;20.55;73.66
11184;BME280;5648;43.628;22.684;2022-08-01T06:12:35;95077.56;;;20.59;74.37
11184;BME280;5648;43.628;22.684;2022-08-01T06:15:00;95070.56;;;20.73;74.60
11184;BME280;5648;43.628;22.684;2022-08-01T06:17:26;95075.13;;;20.62;72.81
11184;BME280;5648;43.628;22.684;2022-08-01T06:19:51;95082.94;;;20.59;72.19
11184;BME280;5648;43.628;22.684;2022-08-01T06:22:17;95079.69;;;20.62;74.37
11184;BME280;5648;43.628;22.684;2022-08-01T06:24:42;95077.53;;;20.74;73.53
11184;BME280;5648;43.628;22.684;2022-08-01T06:27:08;95071.63;;;20.72;74.53
11184;BME280;5648;43.628;22.684;2022-08-01T06:29:33;95067.03;;;20.78;71.68
11184;BME280;5648;43.628;22.684;2022-08-01T06:32:00;95072.72;;;20.66;72.25
11184;BME280;5648;43.628;22.684;2022-08-01T06:34:25;95078.63;;;20.73;71.70
11184;BME280;5648;43.628;22.684;2022-08-01T06:36:51;95068.94;;;20.77;69.83
11184;BME280;5648;43.628;22.684;2022-08-01T06:39:16;95072.69;;;20.86;72.28
11184;BME280;5648;43.628;22.684;2022-08-01T06:41:42;95072.69;;;20.86;69.26
11184;BME280;5648;43.628;22.684;2022-08-01T06:44:07;95056.25;;;20.93;68.70
11184;BME280;5648;43.628;22.684;2022-08-01T06:46:34;95060.53;;;21.04;69.22
11184;BME280;5648;43.628;22.684;2022-08-01T06:48:59;95055.66;;;21.16;68.28
11184;BME280;5648;43.628;22.684;2022-08-01T06:51:25;95054.25;;;21.24;69.11
11184;BME280;5648;43.628;22.684;2022-08-01T06:53:51;95050.00;;;21.18;66.22
11184;BME280;5648;43.628;22.684;2022-08-01T06:56:16;95047.28;;;21.33;68.49
11184;BME280;5648;43.628;22.684;2022-08-01T06:58:42;95054.53;;;21.32;65.25
11184;BME280;5648;43.628;22.684;2022-08-01T07:01:07;95049.69;;;21.40;66.19
11184;BME280;5648;43.628;22.684;2022-08-01T07:03:33;95037.03;;;21.40;65.62
11184;BME280;5648;43.628;22.684;2022-08-01T07:05:59;95042.94;;;21.37;65.46
11184;BME280;5648;43.628;22.684;2022-08-01T07:08:25;95049.41;;;21.36;64.79
11184;BME280;5648;43.628;22.684;2022-08-01T07:10:50;95055.34;;;21.23;62.51
11184;BME280;5648;43.628;22.684;2022-08-01T07:13:16;95064.97;;;21.39;63.56
11184;BME280;5648;43.628;22.684;2022-08-01T07:15:46;95067.13;;;21.42;63.24
11184;BME280;5648;43.628;22.684;2022-08-01T07:18:12;95043.47;;;21.44;64.88
11184;BME280;5648;43.628;22.684;2022-08-01T07:20:37;95055.69;;;21.66;63.72
11184;BME280;5648;43.628;22.684;2022-08-01T07:23:03;95043.41;;;21.54;61.91
11184;BME280;5648;43.628;22.684;2022-08-01T07:25:28;95049.72;;;21.79;62.24
11184;BME280;5648;43.628;22.684;2022-08-01T07:27:54;95058.09;;;21.72;62.42
11184;BME280;5648;43.628;22.684;2022-08-01T07:30:20;95051.19;;;21.56;61.89
11184;BME280;5648;43.628;22.684;2022-08-01T07:32:45;95058.41;;;21.66;62.13
11184;BME280;5648;43.628;22.684;2022-08-01T07:35:11;95055.47;;;21.62;62.09
11184;BME280;5648;43.628;22.684;2022-08-01T07:37:37;95067.28;;;21.66;62.82
11184;BME280;5648;43.628;22.684;2022-08-01T07:40:03;95064.13;;;21.49;61.47
11184;BME280;5648;43.628;22.684;2022-08-01T07:42:30;95065.25;;;21.43;62.00
11184;BME280;5648;43.628;22.684;2022-08-01T07:44:56;95060.28;;;21.65;63.07
11184;BME280;5648;43.628;22.684;2022-08-01T07:47:24;95060.03;;;21.61;62.37
11184;BME280;5648;43.628;22.684;2022-08-01T07:49:50;95064.00;;;21.74;62.94
11184;BME280;5648;43.628;22.684;2022-08-01T07:52:16;95065.84;;;21.79;62.49
11184;BME280;5648;43.628;22.684;2022-08-01T07:54:41;95059.59;;;21.88;64.01
11184;BME280;5648;43.628;22.684;2022-08-01T07:57:07;95059.66;;;21.83;62.17
11184;BME280;5648;43.628;22.684;2022-08-01T07:59:33;95086.34;;;21.75;61.38
11184;BME280;5648;43.628;22.684;2022-08-01T08:01:59;95062.50;;;21.58;61.45
11184;BME280;5648;43.628;22.684;2022-08-01T08:04:25;95092.84;;;21.63;61.76
11184;BME280;5648;43.628;22.684;2022-08-01T08:06:51;95040.63;;;21.70;62.04
11184;BME280;5648;43.628;22.684;2022-08-01T08:09:18;95057.69;;;21.94;61.75
11184;BME280;5648;43.628;22.684;2022-08-01T08:11:45;95050.41;;;21.94;60.91
11184;BME280;5648;43.628;22.684;2022-08-01T08:14:11;95064.63;;;22.05;61.47
11184;BME280;5648;43.628;22.684;2022-08-01T08:16:36;95064.66;;;21.95;59.90
11184;BME280;5648;43.628;22.684;2022-08-01T08:19:02;95094.16;;;21.66;60.37
11184;BME280;5648;43.628;22.684;2022-08-01T08:21:27;95074.78;;;21.74;61.54
11184;BME280;5648;43.628;22.684;2022-08-01T08:23:53;95072.91;;;21.70;61.56
11184;BME280;5648;43.628;22.684;2022-08-01T08:26:37;95075.81;;;21.83;61.03
11184;BME280;5648;43.628;22.684;2022-08-01T08:29:03;95061.72;;;21.97;61.45
11184;BME280;5648;43.628;22.684;2022-08-01T08:31:29;95072.44;;;22.07;59.68
11184;BME280;5648;43.628;22.684;2022-08-01T08:33:54;95077.88;;;22.36;61.15
11184;BME280;5648;43.628;22.684;2022-08-01T08:36:20;95084.47;;;22.54;59.96
11184;BME280;5648;43.628;22.684;2022-08-01T08:38:45;95077.69;;;22.27;59.58
11184;BME280;5648;43.628;22.684;2022-08-01T08:41:11;95071.38;;;22.37;60.85
11184;BME280;5648;43.628;22.684;2022-08-01T08:43:37;95074.72;;;22.23;60.90
11184;BME280;5648;43.628;22.684;2022-08-01T08:46:03;95082.25;;;22.27;60.99
11184;BME280;5648;43.628;22.684;2022-08-01T08:48:30;95070.84;;;22.40;61.29
11184;BME280;5648;43.628;22.684;2022-08-01T08:50:57;95068.34;;;22.48;61.89
11184;BME280;5648;43.628;22.684;2022-08-01T08:53:23;95063.59;;;22.35;60.86
11184;BME280;5648;43.628;22.684;2022-08-01T08:55:49;95072.59;;;22.20;61.62
11184;BME280;5648;43.628;22.684;2022-08-01T08:58:18;95068.03;;;22.55;63.21
11184;BME280;5648;43.628;22.684;2022-08-01T09:00:44;95074.66;;;22.63;61.14
11184;BME280;5648;43.628;22.684;2022-08-01T09:03:11;95067.16;;;22.60;61.20
11184;BME280;5648;43.628;22.684;2022-08-01T09:05:37;95076.69;;;22.47;62.15
11184;BME280;5648;43.628;22.684;2022-08-01T09:08:06;95083.13;;;22.51;64.03
11184;BME280;5648;43.628;22.684;2022-08-01T09:10:32;95076.69;;;22.76;63.89
11184;BME280;5648;43.628;22.684;2022-08-01T09:13:10;95069.94;;;22.84;63.54
11184;BME280;5648;43.628;22.684;2022-08-01T09:15:42;95078.19;;;23.16;63.12
11184;BME280;5648;43.628;22.684;2022-08-01T09:18:34;95072.56;;;22.89;62.55
11184;BME280;5648;43.628;22.684;2022-08-01T09:21:13;95067.00;;;23.04;63.74
11184;BME280;5648;43.628;22.684;2022-08-01T09:26:15;95074.59;;;23.02;61.77
11184;BME280;5648;43.628;22.684;2022-08-01T09:28:42;95065.91;;;23.05;63.20
11184;BME280;5648;43.628;22.684;2022-08-01T09:31:11;95071.03;;;23.30;61.88
11184;BME280;5648;43.628;22.684;2022-08-01T09:33:54;95055.13;;;23.29;62.53
11184;BME280;5648;43.628;22.684;2022-08-01T09:36:22;95067.53;;;23.30;63.08
11184;BME280;5648;43.628;22.684;2022-08-01T09:38:48;95067.50;;;23.54;61.58
11184;BME280;5648;43.628;22.684;2022-08-01T09:41:14;95059.13;;;23.55;61.75
11184;BME280;5648;43.628;22.684;2022-08-01T09:43:47;95062.28;;;22.91;60.45
11184;BME280;5648;43.628;22.684;2022-08-01T09:46:14;95077.00;;;23.03;61.67
11184;BME280;5648;43.628;22.684;2022-08-01T09:48:58;95058.44;;;23.45;62.39
11184;BME280;5648;43.628;22.684;2022-08-01T09:51:35;95059.81;;;23.66;60.73
11184;BME280;5648;43.628;22.684;2022-08-01T09:54:03;95067.56;;;23.73;60.16
11184;BME280;5648;43.628;22.684;2022-08-01T09:56:42;95056.47;;;23.74;58.58
11184;BME280;5648;43.628;22.684;2022-08-01T09:59:08;95052.09;;;23.97;58.66
11184;BME280;5648;43.628;22.684;2022-08-01T10:01:49;95069.00;;;24.03;60.69
11184;BME280;5648;43.628;22.684;2022-08-01T10:04:21;95052.59;;;23.99;58.69
11184;BME280;5648;43.628;22.684;2022-08-01T10:06:49;95046.41;;;23.98;58.69
11184;BME280;5648;43.628;22.684;2022-08-01T10:09:28;95046.75;;;24.11;57.79
11184;BME280;5648;43.628;22.684;2022-08-01T10:11:55;95049.50;;;24.06;54.44
11184;BME280;5648;43.628;22.684;2022-08-01T10:14:23;95044.47;;;24.18;55.71
11184;BME280;5648;43.628;22.684;2022-08-01T10:16:51;95045.34;;;24.32;54.62
11184;BME280;5648;43.628;22.684;2022-08-01T10:19:21;95044.63;;;24.26;53.34
11184;BME280;5648;43.628;22.684;2022-08-01T10:21:47;95033.38;;;24.38;54.18
11184;BME280;5648;43.628;22.684;2022-08-01T10:24:16;95037.81;;;24.29;53.06
11184;BME280;5648;43.628;22.684;2022-08-01T10:26:43;95033.19;;;24.48;53.82
11184;BME280;5648;43.628;22.684;2022-08-01T10:29:09;95051.66;;;24.74;53.51
11184;BME280;5648;43.628;22.684;2022-08-01T10:31:36;95040.22;;;24.63;53.73
11184;BME280;5648;43.628;22.684;2022-08-01T10:34:03;95049.69;;;24.79;53.54
11184;BME280;5648;43.628;22.684;2022-08-01T10:36:29;95041.28;;;24.81;53.46
11184;BME280;5648;43.628;22.684;2022-08-01T10:38:56;95048.94;;;24.60;52.90
11184;BME280;5648;43.628;22.684;2022-08-01T10:41:24;95051.25;;;24.67;51.81
11184;BME280;5648;43.628;22.684;2022-08-01T10:43:50;95051.34;;;24.62;50.95
11184;BME280;5648;43.628;22.684;2022-08-01T10:46:18;95043.38;;;24.84;50.89
11184;BME280;5648;43.628;22.684;2022-08-01T10:51:48;95042.34;;;24.66;52.08
11184;BME280;5648;43.628;22.684;2022-08-01T10:54:13;95043.50;;;24.93;51.81
11184;BME280;5648;43.628;22.684;2022-08-01T10:59:09;95047.06;;;24.88;51.85
11184;BME280;5648;43.628;22.684;2022-08-01T11:01:35;95026.69;;;25.23;52.77
11184;BME280;5648;43.628;22.684;2022-08-01T11:04:09;95038.81;;;25.39;50.64
11184;BME280;5648;43.628;22.684;2022-08-01T11:06:54;95036.69;;;24.95;50.56
11184;BME280;5648;43.628;22.684;2022-08-01T11:09:41;95028.81;;;25.26;50.97
11184;BME280;5648;43.628;22.684;2022-08-01T11:12:15;95034.91;;;25.18;50.50
11184;BME280;5648;43.628;22.684;2022-08-01T11:17:44;95037.19;;;24.97;51.33
11184;BME280;5648;43.628;22.684;2022-08-01T11:20:15;95024.47;;;24.98;51.34
11184;BME280;5648;43.628;22.684;2022-08-01T11:30:45;95011.47;;;25.13;50.22
11184;BME280;5648;43.628;22.684;2022-08-01T11:33:12;95025.19;;;25.03;50.29
11184;BME280;5648;43.628;22.684;2022-08-01T11:39:21;95013.06;;;25.14;50.31
11184;BME280;5648;43.628;22.684;2022-08-01T11:41:29;95010.19;;;25.61;51.72
11184;BME280;5648;43.628;22.684;2022-08-01T11:52:09;95012.03;;;25.52;49.39
11184;BME280;5648;43.628;22.684;2022-08-01T11:55:09;95001.19;;;25.65;48.03
11184;BME280;5648;43.628;22.684;2022-08-01T11:57:29;95007.97;;;26.13;46.72
11184;BME280;5648;43.628;22.684;2022-08-01T12:00:05;94993.91;;;25.88;48.11
11184;BME280;5648;43.628;22.684;2022-08-01T12:02:35;95009.00;;;25.67;48.55
11184;BME280;5648;43.628;22.684;2022-08-01T12:05:10;95000.16;;;25.75;49.75
11184;BME280;5648;43.628;22.684;2022-08-01T12:07:38;94994.50;;;25.49;49.60
11184;BME280;5648;43.628;22.684;2022-08-01T12:12:35;94994.47;;;25.99;49.49
11184;BME280;5648;43.628;22.684;2022-08-01T12:15:04;94997.28;;;25.58;50.08
11184;BME280;5648;43.628;22.684;2022-08-01T12:17:40;94991.22;;;25.25;50.11
11184;BME280;5648;43.628;22.684;2022-08-01T12:20:08;94984.91;;;25.79;50.20
11184;BME280;5648;43.628;22.684;2022-08-01T12:22:34;94981.06;;;25.94;49.24
11184;BME280;5648;43.628;22.684;2022-08-01T12:25:08;94993.69;;;25.49;50.41
11184;BME280;5648;43.628;22.684;2022-08-01T12:27:35;95005.13;;;25.32;49.84
11184;BME280;5648;43.628;22.684;2022-08-01T12:30:03;94994.81;;;25.34;49.07
11184;BME280;5648;43.628;22.684;2022-08-01T12:32:34;94988.31;;;25.35;49.67
11184;BME280;5648;43.628;22.684;2022-08-01T12:35:22;94988.97;;;25.54;50.19
11184;BME280;5648;43.628;22.684;2022-08-01T12:37:56;94980.72;;;25.73;48.96
11184;BME280;5648;43.628;22.684;2022-08-01T12:40:30;94974.56;;;25.81;48.03
11184;BME280;5648;43.628;22.684;2022-08-01T12:43:01;94978.09;;;25.82;48.33
11184;BME280;5648;43.628;22.684;2022-08-01T12:45:31;94983.00;;;26.02;49.15
11184;BME280;5648;43.628;22.684;2022-08-01T12:47:58;94976.66;;;26.29;49.96
11184;BME280;5648;43.628;22.684;2022-08-01T12:50:27;94978.84;;;26.18;48.71
11184;BME280;5648;43.628;22.684;2022-08-01T12:52:53;94969.97;;;26.04;48.47
11184;BME280;5648;43.628;22.684;2022-08-01T12:55:21;94965.59;;;25.94;49.53
11184;BME280;5648;43.628;22.684;2022-08-01T12:57:48;94975.50;;;25.77;48.58
11184;BME280;5648;43.628;22.684;2022-08-01T13:00:25;94969.72;;;25.92;49.29
11184;BME280;5648;43.628;22.684;2022-08-01T13:03:20;94974.41;;;26.00;48.71
11184;BME280;5648;43.628;22.684;2022-08-01T13:05:54;94964.84;;;26.25;48.33
11184;BME280;5648;43.628;22.684;2022-08-01T13:08:24;94960.22;;;26.25;46.43
11184;BME280;5648;43.628;22.684;2022-08-01T13:10:53;94972.44;;;26.37;45.81
11184;BME280;5648;43.628;22.684;2022-08-01T13:13:33;94973.47;;;26.27;45.31
11184;BME280;5648;43.628;22.684;2022-08-01T13:16:03;94963.44;;;26.50;45.36
11184;BME280;5648;43.628;22.684;2022-08-01T13:18:32;94964.28;;;26.14;45.75
11184;BME280;5648;43.628;22.684;2022-08-01T13:23:32;94976.88;;;26.32;45.44
11184;BME280;5648;43.628;22.684;2022-08-01T13:25:58;94955.50;;;26.09;45.94
11184;BME280;5648;43.628;22.684;2022-08-01T13:28:25;94959.50;;;26.33;44.78
11184;BME280;5648;43.628;22.684;2022-08-01T13:33:17;94959.88;;;26.41;44.30
11184;BME280;5648;43.628;22.684;2022-08-01T13:35:42;94974.38;;;26.45;43.96
11184;BME280;5648;43.628;22.684;2022-08-01T13:38:08;94979.94;;;26.71;42.91
11184;BME280;5648;43.628;22.684;2022-08-01T13:40:33;94966.72;;;26.38;44.51
11184;BME280;5648;43.628;22.684;2022-08-01T13:42:59;94960.34;;;26.43;43.66
11184;BME280;5648;43.628;22.684;2022-08-01T13:45:24;94966.78;;;26.47;42.79
11184;BME280;5648;43.628;22.684;2022-08-01T13:47:49;94970.81;;;26.13;42.84
11184;BME280;5648;43.628;22.684;2022-08-01T13:50:15;94973.44;;;26.18;43.40
11184;BME280;5648;43.628;22.684;2022-08-01T13:52:40;94963.56;;;26.22;43.14
11184;BME280;5648;43.628;22.684;2022-08-01T13:55:06;94966.72;;;26.38;43.17
11184;BME280;5648;43.628;22.684;2022-08-01T13:57:32;94951.72;;;26.41;43.04
11184;BME280;5648;43.628;22.684;2022-08-01T13:59:57;94961.34;;;26.24;43.04
11184;BME280;5648;43.628;22.684;2022-08-01T14:02:26;94963.66;;;26.17;43.10